Strona główna
METAR-TAF:

METAR-TAF

Lotnisko :

Istres, Francja

Szerokość geograficzna: 43-31N, Długość geograficzna: 004-56E, wysokość: 23 m

Aktualna obserwacja pogody

Raport powstał 16 minut temu, godzina 08:30 UTC
Wiatr 3 kt od północno-północny zachód, zmienny między zachód i północny wschód
Temperatura 23°C
Wilgotność 53%
Ciśnienie 1025 hPa
Widzialność 10 km lub więcej
Brak chmur poniżej 1500 m i brak chmur cumulonimbus

METAR: LFMI 280830Z AUTO 34003KT 260V050 CAVOK 23/13 Q1025 NOSIG

czas: 10:46 (08:46 UTC)

Prognoza

Raport powstał 46 minut temu, godzina 08:00 UTC
Prognoza ważna od 28 godzina 09 UTC do 29 godzina 09 UTC
Wiatr 4 kt od północny zachód
Widzialność 10 km lub więcej
Brak chmur poniżej 1500 m i brak chmur cumulonimbus
Stopniowe zmiany
od 28 godzina 12 UTC do 28 godzina 14 UTC
Wiatr 15 kt od zachodnio-południowy zachód
Stopniowe zmiany
od 28 godzina 19 UTC do 28 godzina 21 UTC
Wiatr 5 kt od zachodnio-południowy zachód

TAF: LFMI 280800Z 2809/2909 32004KT CAVOK BECMG 2812/2814 24015KT BECMG 2819/2821 24005KT

Obserwacja i prognoza pogody dla ponad 4000 lotnisk (raport METAR i TAF).

Dostępne stacje oznaczono żółtymi i czerwonymi punktami na mapie.

Najedź kursorem aby zobaczyć nazwę stacji.

Kliknij aby zobaczyć obserwacje i prognozy pogody.

Aby zmienić mapę: kliknij na zielony przycisk z czarnym krzyżykiem, aby powiększyć; na zielony przycisk z myślnikiem, aby pomniejszyć; na zielone strzałki, aby przejść do map sąsiednich.


METAR-TAF: